createdAt,value
2022-10-02T00:01:51.861Z,93.62
2022-10-02T00:04:25.859Z,93.63
2022-10-02T00:06:59.920Z,93.63
2022-10-02T00:09:34.958Z,94.32
2022-10-02T00:12:08.375Z,94.54
2022-10-02T00:14:42.058Z,95.38
2022-10-02T00:17:17.439Z,95.54
2022-10-02T00:19:46.825Z,95.90
2022-10-02T00:22:31.665Z,95.96
2022-10-02T00:25:14.284Z,95.24
2022-10-02T00:28:02.359Z,94.81
2022-10-02T00:30:44.143Z,94.88
2022-10-02T00:33:29.355Z,94.89
2022-10-02T00:36:14.665Z,94.27
2022-10-02T00:38:53.533Z,94.08
2022-10-02T00:41:52.637Z,93.53
2022-10-02T00:44:45.442Z,92.77
2022-10-02T00:47:24.563Z,92.02
2022-10-02T00:50:15.336Z,92.18
2022-10-02T00:52:56.412Z,90.76
2022-10-02T00:55:49.301Z,89.82
2022-10-02T00:58:36.726Z,88.70
2022-10-02T01:01:17.774Z,88.18
2022-10-02T01:03:54.039Z,87.44
2022-10-02T01:06:29.993Z,87.44
2022-10-02T01:09:06.170Z,87.91
2022-10-02T01:11:36.831Z,87.72
2022-10-02T01:14:06.421Z,88.07
2022-10-02T01:16:37.840Z,87.78
2022-10-02T01:19:30.752Z,88.09
2022-10-02T01:22:12.054Z,88.39
2022-10-02T01:24:55.274Z,88.92
2022-10-02T01:27:26.118Z,89.69
2022-10-02T01:30:01.820Z,90.20
2022-10-02T01:32:33.854Z,89.88
2022-10-02T01:35:03.555Z,89.64
2022-10-02T01:37:37.485Z,89.33
2022-10-02T01:40:12.241Z,89.15
2022-10-02T01:42:42.215Z,88.81
2022-10-02T01:45:16.642Z,89.04
2022-10-02T01:47:53.201Z,88.67
2022-10-02T01:50:34.579Z,89.05
2022-10-02T01:53:10.969Z,89.25
2022-10-02T01:58:33.897Z,88.78
2022-10-02T02:01:13.237Z,88.21
2022-10-02T02:03:52.422Z,87.27
2022-10-02T02:06:28.785Z,87.57
2022-10-02T02:09:08.962Z,87.90
2022-10-02T02:11:55.854Z,88.98
2022-10-02T02:14:27.553Z,88.37
2022-10-02T02:17:09.395Z,88.61
2022-10-02T02:19:45.832Z,88.67
2022-10-02T02:22:21.214Z,89.02
2022-10-02T02:24:59.159Z,89.63
2022-10-02T02:27:36.633Z,90.34
2022-10-02T02:30:11.482Z,90.57
2022-10-02T02:32:47.394Z,90.48
2022-10-02T02:35:20.056Z,90.47
2022-10-02T02:37:53.707Z,91.25
2022-10-02T02:40:28.134Z,91.95
2022-10-02T02:43:12.131Z,92.57
2022-10-02T02:45:53.620Z,91.69
2022-10-02T02:48:26.483Z,91.76
2022-10-02T02:50:59.899Z,91.12
2022-10-02T02:53:35.500Z,90.30
2022-10-02T02:56:14.090Z,89.77
2022-10-02T02:58:50.700Z,89.07
2022-10-02T03:01:20.998Z,88.46
2022-10-02T03:03:55.611Z,87.73
2022-10-02T03:06:37.393Z,85.59
2022-10-02T03:09:20.467Z,85.93
2022-10-02T03:11:56.438Z,85.23
2022-10-02T03:14:45.342Z,84.96
2022-10-02T03:17:23.832Z,84.65
2022-10-02T03:20:00.737Z,85.02
2022-10-02T03:22:41.846Z,85.19
2022-10-02T03:25:16.848Z,85.18
2022-10-02T03:27:53.340Z,85.63
2022-10-02T03:30:25.064Z,85.39
2022-10-02T03:33:00.549Z,85.55
2022-10-02T03:35:35.570Z,85.08
2022-10-02T03:38:08.620Z,85.29
2022-10-02T03:40:38.432Z,85.65
2022-10-02T03:43:07.806Z,85.30
2022-10-02T03:45:51.434Z,85.74
2022-10-02T03:48:21.176Z,85.89
2022-10-02T03:50:55.847Z,85.77
2022-10-02T03:53:31.112Z,86.15
2022-10-02T03:56:11.947Z,86.39
2022-10-02T03:58:47.200Z,86.41
2022-10-02T04:01:33.981Z,86.63
2022-10-02T04:04:06.228Z,85.97
2022-10-02T04:06:46.040Z,86.11
2022-10-02T04:09:20.534Z,86.38
2022-10-02T04:12:05.145Z,86.86
2022-10-02T04:14:44.537Z,86.70
2022-10-02T04:17:20.954Z,86.97
2022-10-02T04:19:55.384Z,87.14
2022-10-02T04:22:34.663Z,87.15
2022-10-02T04:25:12.233Z,85.51
2022-10-02T04:27:50.775Z,84.51
2022-10-02T04:30:21.929Z,84.50
2022-10-02T04:33:00.020Z,83.92
2022-10-02T04:35:35.101Z,82.82
2022-10-02T04:38:23.268Z,82.17
2022-10-02T04:41:05.917Z,82.14
2022-10-02T04:43:53.904Z,81.74
2022-10-02T04:46:44.371Z,81.54
2022-10-02T04:49:49.373Z,81.38
2022-10-02T04:52:33.512Z,80.52
2022-10-02T04:55:25.915Z,80.26
2022-10-02T04:58:13.181Z,79.71
2022-10-02T05:00:50.006Z,80.09
2022-10-02T05:03:38.277Z,80.78
2022-10-02T05:06:26.274Z,80.50
2022-10-02T05:09:09.088Z,79.73
2022-10-02T05:12:02.597Z,79.51
2022-10-02T05:14:48.860Z,79.67
2022-10-02T05:17:32.960Z,79.34
2022-10-02T05:20:18.637Z,79.21
2022-10-02T05:23:08.170Z,79.07
2022-10-02T05:25:51.372Z,79.21
2022-10-02T05:28:49.411Z,79.02
2022-10-02T05:31:33.101Z,79.19
2022-10-02T05:34:16.969Z,78.69
2022-10-02T05:37:09.870Z,79.17
2022-10-02T05:39:49.915Z,79.17
2022-10-02T05:42:28.185Z,79.75
2022-10-02T05:45:08.588Z,79.53
2022-10-02T05:47:44.639Z,79.45
2022-10-02T05:50:18.985Z,79.38
2022-10-02T05:52:56.733Z,79.05
2022-10-02T05:55:34.996Z,79.00
2022-10-02T05:58:10.045Z,79.22
2022-10-02T06:00:45.048Z,79.15
2022-10-02T06:03:24.305Z,78.91
2022-10-02T06:06:03.386Z,78.46
2022-10-02T06:08:40.675Z,78.68
2022-10-02T06:11:18.455Z,78.76
2022-10-02T06:13:54.689Z,78.87
2022-10-02T06:16:30.259Z,78.77
2022-10-02T06:19:04.894Z,78.89
2022-10-02T06:21:40.107Z,78.77
2022-10-02T06:24:18.318Z,79.44
2022-10-02T06:26:54.861Z,79.36
2022-10-02T06:29:29.263Z,79.30
2022-10-02T06:32:10.820Z,79.24
2022-10-02T06:34:48.214Z,78.74
2022-10-02T06:37:35.057Z,78.69
2022-10-02T06:40:20.571Z,78.24
2022-10-02T06:43:01.827Z,78.20
2022-10-02T06:45:45.660Z,77.37
2022-10-02T06:48:26.019Z,77.67
2022-10-02T06:51:03.861Z,77.16
2022-10-02T06:53:51.881Z,77.91
2022-10-02T06:56:46.549Z,78.42
2022-10-02T06:59:31.141Z,78.23
2022-10-02T07:02:11.830Z,78.51
2022-10-02T07:05:00.515Z,78.40
2022-10-02T07:07:43.862Z,78.52
2022-10-02T07:10:35.330Z,78.26
2022-10-02T07:13:27.836Z,78.49
2022-10-02T07:16:29.847Z,78.65
2022-10-02T07:19:32.534Z,78.89
2022-10-02T07:22:26.157Z,77.85
2022-10-02T07:25:19.088Z,77.59
2022-10-02T07:27:58.038Z,77.24
2022-10-02T07:30:35.088Z,77.42
2022-10-02T07:33:11.462Z,77.02
2022-10-02T07:35:52.599Z,76.97
2022-10-02T07:38:48.594Z,75.70
2022-10-02T07:41:46.249Z,75.76
2022-10-02T07:44:33.511Z,75.92
2022-10-02T07:47:14.480Z,75.90
2022-10-02T07:49:53.536Z,75.93
2022-10-02T07:52:34.048Z,75.66
2022-10-02T07:55:16.762Z,75.97
2022-10-02T07:57:58.124Z,75.52
2022-10-02T08:00:30.585Z,74.60
2022-10-02T08:03:02.849Z,74.52
2022-10-02T08:05:37.158Z,74.99
2022-10-02T08:08:17.835Z,75.46
2022-10-02T08:10:58.550Z,75.30
2022-10-02T08:13:32.798Z,76.64
2022-10-02T08:16:05.764Z,77.97
2022-10-02T08:18:39.016Z,79.03
2022-10-02T08:21:16.133Z,80.24
2022-10-02T08:23:53.008Z,80.86
2022-10-02T08:26:35.135Z,81.19
2022-10-02T08:29:17.309Z,81.63
2022-10-02T08:31:46.814Z,81.51
2022-10-02T08:34:19.017Z,81.97
2022-10-02T08:37:13.997Z,81.88
2022-10-02T08:40:11.127Z,80.54
2022-10-02T08:43:14.035Z,79.14
2022-10-02T08:46:21.733Z,78.15
2022-10-02T08:49:17.063Z,76.10
2022-10-02T08:52:24.639Z,73.41
2022-10-02T08:55:21.573Z,72.23
2022-10-02T08:58:38.157Z,70.74
2022-10-02T09:01:22.236Z,70.94
2022-10-02T09:04:20.395Z,70.92
2022-10-02T09:07:19.697Z,70.38
2022-10-02T09:10:37.320Z,69.24
2022-10-02T09:13:40.608Z,67.87
2022-10-02T09:16:12.614Z,67.50
2022-10-02T09:18:57.680Z,66.03
2022-10-02T09:21:51.805Z,64.56
2022-10-02T09:25:03.913Z,63.77
2022-10-02T09:27:49.611Z,65.41
2022-10-02T09:30:28.815Z,62.37
2022-10-02T09:33:27.439Z,62.14
2022-10-02T09:36:27.276Z,61.56
2022-10-02T09:39:24.588Z,62.02
2022-10-02T09:42:20.596Z,61.44
2022-10-02T09:45:28.833Z,61.65
2022-10-02T09:48:45.278Z,61.81
2022-10-02T09:51:47.144Z,60.98
2022-10-02T09:55:00.470Z,60.72
2022-10-02T09:58:13.724Z,60.76
2022-10-02T10:01:15.004Z,61.44
2022-10-02T10:04:12.481Z,61.39
2022-10-02T10:07:26.712Z,61.78
2022-10-02T10:10:29.294Z,62.13
2022-10-02T10:13:31.890Z,61.88
2022-10-02T10:16:33.048Z,62.00
2022-10-02T10:19:32.515Z,61.48
2022-10-02T10:22:23.450Z,61.68
2022-10-02T10:25:22.410Z,61.68
2022-10-02T10:28:27.164Z,61.49
2022-10-02T10:31:34.493Z,60.69
2022-10-02T10:34:37.330Z,60.77
2022-10-02T10:37:56.872Z,60.45
2022-10-02T10:40:44.492Z,60.19
2022-10-02T10:43:43.122Z,60.27
2022-10-02T10:46:30.756Z,59.72
2022-10-02T10:49:21.014Z,60.23
2022-10-02T10:52:03.454Z,59.33
2022-10-02T10:54:54.919Z,59.82
2022-10-02T10:57:42.457Z,58.74
2022-10-02T11:00:20.071Z,58.07
2022-10-02T11:03:01.430Z,57.70
2022-10-02T11:06:18.589Z,58.19
2022-10-02T11:09:16.017Z,58.02
2022-10-02T11:12:00.262Z,58.87
2022-10-02T11:14:43.435Z,58.76
2022-10-02T11:17:34.283Z,58.32
2022-10-02T11:20:22.589Z,58.48
2022-10-02T11:23:15.505Z,59.40
2022-10-02T11:26:23.438Z,59.48
2022-10-02T11:29:22.387Z,59.79
2022-10-02T11:32:27.542Z,60.19
2022-10-02T11:35:22.951Z,60.10
2022-10-02T11:38:30.132Z,60.62
2022-10-02T11:41:46.459Z,61.21
2022-10-02T11:44:29.890Z,61.46
2022-10-02T11:47:31.306Z,62.52
2022-10-02T11:50:28.745Z,62.52
2022-10-02T11:53:22.784Z,63.46
2022-10-02T11:56:04.132Z,62.78
2022-10-02T11:58:51.685Z,61.83
2022-10-02T12:01:38.490Z,61.14
2022-10-02T12:04:22.663Z,61.08
2022-10-02T12:07:17.868Z,60.49
2022-10-02T12:10:07.140Z,60.45
2022-10-02T12:12:51.095Z,60.97
2022-10-02T12:15:37.880Z,61.34
2022-10-02T12:18:22.999Z,61.76
2022-10-02T12:21:19.044Z,62.43
2022-10-02T12:24:10.364Z,62.80
2022-10-02T12:27:09.288Z,63.77
2022-10-02T12:30:03.204Z,64.23
2022-10-02T12:32:55.039Z,64.50
2022-10-02T12:35:37.649Z,64.69
2022-10-02T12:38:24.079Z,64.46
2022-10-02T12:41:08.205Z,65.10
2022-10-02T12:44:09.034Z,65.85
2022-10-02T12:47:18.641Z,66.63
2022-10-02T12:57:02.395Z,68.05
2022-10-02T12:59:49.103Z,70.10
2022-10-02T13:03:00.727Z,69.62
2022-10-02T13:05:52.857Z,70.29
2022-10-02T13:08:41.225Z,70.68
2022-10-02T13:11:25.182Z,69.87
2022-10-02T13:14:10.800Z,69.61
2022-10-02T13:17:09.011Z,70.36
2022-10-02T13:19:49.197Z,68.78
2022-10-02T13:22:25.990Z,68.40
2022-10-02T13:25:04.447Z,67.76
2022-10-02T13:27:49.279Z,67.60
2022-10-02T13:30:26.060Z,67.50
2022-10-02T13:33:28.843Z,66.37
2022-10-02T13:36:13.683Z,66.60
2022-10-02T13:39:15.471Z,65.97
2022-10-02T13:41:59.600Z,66.06
2022-10-02T13:44:45.466Z,66.77
2022-10-02T13:47:33.343Z,66.88
2022-10-02T13:50:46.072Z,67.29
2022-10-02T13:53:38.405Z,67.61
2022-10-02T13:56:15.803Z,67.43
2022-10-02T13:59:10.263Z,67.85
2022-10-02T14:01:54.174Z,68.06
2022-10-02T14:04:39.454Z,68.71
2022-10-02T14:07:23.146Z,68.55
2022-10-02T14:10:04.640Z,69.09
2022-10-02T14:12:46.643Z,68.63
2022-10-02T14:15:26.761Z,68.22
2022-10-02T14:18:28.570Z,68.86
2022-10-02T14:21:09.781Z,68.60
2022-10-02T14:23:53.447Z,68.92
2022-10-02T14:26:41.896Z,69.53
2022-10-02T14:29:32.334Z,69.84
2022-10-02T14:32:22.866Z,69.82
2022-10-02T14:35:11.171Z,70.62
2022-10-02T14:41:00.935Z,69.85
2022-10-02T14:43:54.148Z,70.42
2022-10-02T14:46:40.618Z,70.66
2022-10-02T14:49:36.526Z,70.53
2022-10-02T14:52:39.010Z,70.90
2022-10-02T14:55:30.704Z,71.48
2022-10-02T14:58:22.141Z,71.99
2022-10-02T15:01:10.203Z,72.11
2022-10-02T15:03:56.528Z,71.82
2022-10-02T15:06:36.627Z,71.88
2022-10-02T15:09:15.236Z,72.15
2022-10-02T15:12:13.489Z,72.77
2022-10-02T15:14:56.578Z,72.37
2022-10-02T15:17:54.111Z,72.23
2022-10-02T15:20:40.025Z,72.02
2022-10-02T15:23:41.317Z,72.37
2022-10-02T15:26:38.448Z,72.97
2022-10-02T15:29:22.612Z,73.23
2022-10-02T15:32:28.310Z,73.48
2022-10-02T15:35:12.639Z,74.02
2022-10-02T15:37:49.938Z,74.53
2022-10-02T15:40:36.794Z,74.51
2022-10-02T15:43:28.412Z,74.77
2022-10-02T15:46:06.480Z,74.28
2022-10-02T15:48:55.222Z,74.81
2022-10-02T15:51:40.134Z,74.47
2022-10-02T15:54:45.737Z,75.18
2022-10-02T15:57:35.952Z,74.67
2022-10-02T16:00:23.561Z,74.90
2022-10-02T16:03:03.703Z,74.87
2022-10-02T16:06:05.185Z,74.83
2022-10-02T16:09:03.347Z,74.57
2022-10-02T16:11:54.359Z,75.23
2022-10-02T16:14:36.169Z,75.11
2022-10-02T16:17:25.763Z,75.24
2022-10-02T16:20:12.075Z,74.77
2022-10-02T16:22:57.431Z,74.86
2022-10-02T16:25:40.224Z,75.77
2022-10-02T16:28:22.746Z,75.38
2022-10-02T16:31:10.667Z,75.29
2022-10-02T16:33:50.732Z,75.77
2022-10-02T16:36:31.462Z,75.60
2022-10-02T16:39:31.316Z,75.78
2022-10-02T16:42:12.418Z,75.52
2022-10-02T16:45:01.125Z,75.99
2022-10-02T16:47:38.358Z,76.13
2022-10-02T16:50:21.679Z,76.71
2022-10-02T16:52:59.056Z,76.59
2022-10-02T16:55:35.426Z,76.87
2022-10-02T16:58:24.109Z,77.01
2022-10-02T17:00:58.880Z,77.15
2022-10-02T17:03:35.357Z,77.56
2022-10-02T17:06:11.700Z,77.71
2022-10-02T17:08:46.201Z,77.36
2022-10-02T17:11:22.478Z,77.97
2022-10-02T17:14:14.311Z,78.32
2022-10-02T17:16:55.061Z,77.87
2022-10-02T17:19:30.471Z,78.34
2022-10-02T17:22:04.558Z,78.17
2022-10-02T17:24:41.967Z,78.34
2022-10-02T17:27:18.737Z,78.63
2022-10-02T17:30:01.390Z,78.96
2022-10-02T17:32:39.224Z,78.81
2022-10-02T17:35:17.852Z,78.98
2022-10-02T17:38:12.362Z,78.89
2022-10-02T17:40:58.821Z,78.71
2022-10-02T17:43:36.863Z,78.66
2022-10-02T17:46:31.085Z,79.02
2022-10-02T17:49:05.756Z,80.11
2022-10-02T17:51:52.793Z,81.46
2022-10-02T17:55:00.236Z,83.04
2022-10-02T17:57:46.220Z,84.97
2022-10-02T18:00:22.441Z,86.58
2022-10-02T18:03:11.757Z,87.75
2022-10-02T18:05:59.396Z,88.52
2022-10-02T18:09:01.484Z,89.28
2022-10-02T18:11:38.878Z,89.30
2022-10-02T18:14:20.193Z,90.49
2022-10-02T18:17:10.955Z,91.34
2022-10-02T18:19:56.760Z,92.79
2022-10-02T18:22:46.097Z,93.34
2022-10-02T18:25:29.866Z,93.92
2022-10-02T18:28:14.610Z,94.21
2022-10-02T18:30:53.815Z,94.11
2022-10-02T18:34:06.324Z,93.93
2022-10-02T18:36:51.361Z,94.69
2022-10-02T18:39:32.521Z,95.19
2022-10-02T18:42:25.806Z,95.56
2022-10-02T18:45:04.651Z,95.73
2022-10-02T18:47:51.063Z,95.84
2022-10-02T18:50:40.021Z,95.71
2022-10-02T18:53:41.963Z,96.02
2022-10-02T18:56:21.891Z,95.63
2022-10-02T18:59:06.224Z,95.67
2022-10-02T19:01:53.502Z,95.96
2022-10-02T19:04:53.829Z,95.72
2022-10-02T19:07:29.003Z,96.28
2022-10-02T19:10:30.736Z,96.10
2022-10-02T19:13:04.381Z,95.96
2022-10-02T19:18:20.029Z,95.98
2022-10-02T19:21:00.174Z,96.19
2022-10-02T19:23:37.651Z,96.38
2022-10-02T19:26:17.639Z,96.34
2022-10-02T19:28:54.839Z,96.78
2022-10-02T19:31:29.982Z,98.00
2022-10-02T19:34:03.209Z,99.72
2022-10-02T19:36:41.770Z,100.00
2022-10-02T19:39:22.151Z,100.00
2022-10-02T19:42:04.388Z,100.00
2022-10-02T19:44:40.359Z,100.00
2022-10-02T19:47:16.611Z,100.00
2022-10-02T19:49:50.007Z,100.00
2022-10-02T19:52:44.424Z,100.00
2022-10-02T19:55:24.609Z,100.00
2022-10-02T19:57:58.434Z,100.00
2022-10-02T20:00:36.539Z,100.00
2022-10-02T20:03:19.424Z,100.00
2022-10-02T20:05:52.207Z,100.00
2022-10-02T20:08:28.526Z,100.00
2022-10-02T20:11:07.104Z,100.00
2022-10-02T20:13:45.831Z,100.00
2022-10-02T20:16:39.299Z,100.00
2022-10-02T20:19:24.942Z,100.00
2022-10-02T20:21:57.121Z,100.00
2022-10-02T20:24:37.316Z,100.00
2022-10-02T20:27:12.801Z,100.00
2022-10-02T20:29:51.295Z,100.00
2022-10-02T20:32:26.837Z,100.00
2022-10-02T20:35:01.476Z,100.00
2022-10-02T20:37:36.276Z,100.00
2022-10-02T20:40:11.226Z,100.00
2022-10-02T20:42:48.185Z,100.00
2022-10-02T20:45:31.987Z,100.00
2022-10-02T20:49:03.468Z,100.00
2022-10-02T20:52:08.072Z,100.00
2022-10-02T20:54:46.072Z,100.00
2022-10-02T20:58:00.132Z,100.00
2022-10-02T21:00:35.099Z,100.00
2022-10-02T21:03:24.208Z,100.00
2022-10-02T21:06:28.451Z,100.00
2022-10-02T21:09:28.406Z,100.00
2022-10-02T21:12:35.474Z,100.00
2022-10-02T21:15:30.883Z,100.00
2022-10-02T21:18:35.059Z,100.00
2022-10-02T21:21:42.868Z,100.00
2022-10-02T21:24:45.605Z,100.00
2022-10-02T21:27:41.865Z,100.00
2022-10-02T21:30:16.405Z,100.00
2022-10-02T21:33:10.975Z,100.00
2022-10-02T21:35:53.797Z,100.00
2022-10-02T21:39:01.668Z,100.00
2022-10-02T21:41:54.693Z,100.00
2022-10-02T21:45:03.459Z,100.00
2022-10-02T21:48:04.201Z,100.00
2022-10-02T21:51:19.051Z,100.00
2022-10-02T21:54:16.358Z,100.00
2022-10-02T21:57:15.771Z,100.00
2022-10-02T22:00:13.957Z,100.00
2022-10-02T22:03:15.409Z,100.00
2022-10-02T22:06:07.935Z,100.00
2022-10-02T22:08:54.725Z,100.00
2022-10-02T22:11:36.110Z,100.00
2022-10-02T22:14:12.544Z,100.00
2022-10-02T22:16:57.117Z,100.00
2022-10-02T22:19:50.333Z,100.00
2022-10-02T22:22:29.304Z,100.00
2022-10-02T22:25:23.596Z,100.00
2022-10-02T22:28:18.815Z,100.00
2022-10-02T22:31:10.946Z,100.00
2022-10-02T22:33:53.763Z,100.00
2022-10-02T22:36:55.061Z,100.00
2022-10-02T22:39:30.997Z,100.00
2022-10-02T22:42:05.520Z,100.00
2022-10-02T22:44:43.685Z,100.00
2022-10-02T22:47:23.174Z,100.00
2022-10-02T22:49:56.269Z,100.00
2022-10-02T22:52:29.813Z,100.00
2022-10-02T22:55:12.352Z,100.00
2022-10-02T22:57:46.430Z,100.00
2022-10-02T23:00:20.951Z,100.00
2022-10-02T23:02:57.549Z,100.00
2022-10-02T23:05:34.977Z,100.00
2022-10-02T23:08:16.831Z,100.00
2022-10-02T23:10:47.398Z,100.00
2022-10-02T23:13:23.782Z,100.00
2022-10-02T23:15:59.789Z,100.00
2022-10-02T23:18:42.522Z,100.00
2022-10-02T23:21:26.667Z,100.00
2022-10-02T23:24:17.481Z,100.00
2022-10-02T23:26:52.224Z,100.00
2022-10-02T23:29:32.572Z,100.00
2022-10-02T23:32:10.912Z,100.00
2022-10-02T23:34:47.501Z,100.00
2022-10-02T23:37:22.144Z,100.00
2022-10-02T23:39:56.252Z,100.00
2022-10-02T23:42:31.489Z,100.00
2022-10-02T23:45:08.223Z,100.00
2022-10-02T23:47:50.648Z,100.00
2022-10-02T23:53:37.221Z,100.00
2022-10-02T23:56:22.281Z,100.00
2022-10-02T23:59:07.854Z,100.00
